Time;durP1;ratioP1;P1;durP2;ratioP2;P2;SDS_P1;SDS_P2;PMS_P1;PMS_P2;Temp;Humidity;BMP_temperature;BMP_pressure;BME280_temperature;BME280_humidity;BME280_pressure;Samples;Min_cycle;Max_cycle;Signal;HPM_P1;HPM_P2
2021/03/04 08:48:55;;;;;;;37.13;9.60;;;12.50;91.20;;;;;;4295748;27;20623;-65
2021/03/04 08:51:00;;;;;;;29.55;9.70;;;12.50;90.70;;;;;;4278067;27;20050;-66
2021/03/04 08:53:06;;;;;;;;;;;12.80;90.30;;;;;;4270638;27;20390;-71
2021/03/04 08:55:08;;;;;;;28.77;13.63;;;13.10;89.00;;;;;;4261668;27;19949;-68
2021/03/04 08:57:10;;;;;;;39.08;16.67;;;13.50;88.00;;;;;;4261372;27;20051;-70
2021/03/04 08:59:20;;;;;;;41.67;15.95;;;13.80;89.30;;;;;;4263967;27;20145;-68
2021/03/04 09:01:39;;;;;;;23.92;11.10;;;14.10;87.50;;;;;;4269305;27;20046;-70
2021/03/04 09:03:45;;;;;;;34.72;12.93;;;14.40;83.70;;;;;;4269505;27;20062;-71
2021/03/04 09:05:48;;;;;;;33.65;10.93;;;14.80;84.30;;;;;;4270801;27;20047;-70
2021/03/04 09:07:50;;;;;;;38.40;14.85;;;14.80;82.70;;;;;;4268650;27;20056;-71
2021/03/04 09:09:58;;;;;;;29.52;11.30;;;14.90;83.90;;;;;;4276632;27;20042;-71
2021/03/04 09:12:00;;;;;;;34.40;9.88;;;15.20;81.30;;;;;;4277478;27;20054;-73
2021/03/04 09:14:02;;;;;;;33.47;12.38;;;15.30;78.70;;;;;;4264803;27;20061;-70
2021/03/04 09:16:07;;;;;;;30.45;12.45;;;15.20;80.60;;;;;;4260627;27;20075;-70
2021/03/04 09:18:10;;;;;;;42.30;13.98;;;15.40;80.60;;;;;;4260344;27;20053;-72
2021/03/04 09:20:14;;;;;;;33.03;10.75;;;15.60;80.70;;;;;;4261146;27;20062;-72
2021/03/04 09:22:16;;;;;;;25.33;11.43;;;15.80;78.20;;;;;;4260341;27;20062;-70
2021/03/04 09:24:18;;;;;;;24.05;12.80;;;15.80;78.10;;;;;;4272587;27;20461;-73
2021/03/04 09:26:20;;;;;;;22.30;9.90;;;15.90;78.80;;;;;;4277444;27;20053;-70
2021/03/04 09:28:22;;;;;;;23.40;9.13;;;15.80;76.80;;;;;;4277246;27;20050;-71
2021/03/04 09:30:27;;;;;;;23.58;11.15;;;15.90;77.20;;;;;;4277276;27;20561;-70
2021/03/04 09:32:32;;;;;;;24.75;9.70;;;15.80;78.90;;;;;;4277425;27;20047;-70
2021/03/04 09:34:36;;;;;;;30.92;12.65;;;15.80;77.30;;;;;;4277249;27;20077;-70
2021/03/04 09:36:37;;;;;;;22.23;10.68;;;15.70;80.10;;;;;;4277107;27;20061;-71
2021/03/04 09:38:50;;;;;;;23.77;10.30;;;15.90;77.70;;;;;;4258541;27;20112;-70
2021/03/04 09:40:53;;;;;;;31.98;11.10;;;16.30;77.60;;;;;;4277076;27;20046;-68
2021/03/04 09:42:55;;;;;;;34.60;11.02;;;16.30;76.30;;;;;;4263183;27;20039;-68
2021/03/04 09:45:00;;;;;;;30.10;13.60;;;16.60;76.60;;;;;;4259733;27;20194;-68
2021/03/04 09:47:01;;;;;;;26.13;11.05;;;16.60;76.50;;;;;;4259196;27;20046;-68
2021/03/04 09:49:08;;;;;;;28.30;12.40;;;16.70;76.60;;;;;;4259018;27;20463;-69
2021/03/04 09:51:10;;;;;;;23.60;10.50;;;16.60;75.20;;;;;;4258837;27;20043;-68
2021/03/04 09:53:12;;;;;;;21.90;11.73;;;16.20;76.40;;;;;;4266299;27;20046;-67
2021/03/04 09:55:17;;;;;;;21.77;10.50;;;15.90;76.70;;;;;;4276143;27;20083;-69
2021/03/04 09:57:20;;;;;;;26.48;9.75;;;15.40;78.80;;;;;;4245824;27;20052;-69
2021/03/04 09:59:22;;;;;;;26.17;9.10;;;15.20;80.00;;;;;;4252535;27;20571;-70
2021/03/04 10:01:29;;;;;;;21.25;8.20;;;15.10;80.30;;;;;;4230113;28;20213;-69
2021/03/04 10:03:32;;;;;;;27.48;8.82;;;14.90;81.20;;;;;;4248043;27;20058;-69
2021/03/04 10:05:44;;;;;;;26.23;8.38;;;15.00;81.60;;;;;;4248221;27;20049;-68
2021/03/04 10:07:47;;;;;;;28.00;9.63;;;15.00;81.20;;;;;;4248011;27;20518;-69
2021/03/04 10:09:48;;;;;;;28.92;9.80;;;14.80;81.30;;;;;;4248906;27;20051;-69
2021/03/04 10:11:51;;;;;;;27.25;9.07;;;15.00;82.00;;;;;;4231023;28;20077;-71
2021/03/04 10:13:53;;;;;;;23.17;9.48;;;14.70;81.90;;;;;;4230802;28;20048;-66
2021/03/04 10:15:55;;;;;;;26.50;9.32;;;15.10;81.20;;;;;;4249172;27;20043;-67
2021/03/04 10:17:58;;;;;;;26.75;10.15;;;15.30;81.10;;;;;;4248943;27;20039;-67
2021/03/04 10:20:00;;;;;;;25.85;8.88;;;15.20;81.20;;;;;;4248495;27;20047;-70
2021/03/04 10:22:02;;;;;;;25.50;8.95;;;15.20;80.90;;;;;;4248710;27;20047;-74
2021/03/04 10:24:04;;;;;;;21.73;9.32;;;15.40;81.00;;;;;;4247291;27;20082;-72
2021/03/04 10:26:06;;;;;;;21.77;9.85;;;15.30;80.10;;;;;;4247388;27;20043;-71
2021/03/04 10:28:09;;;;;;;25.35;8.48;;;15.50;79.60;;;;;;4247648;27;20475;-70
2021/03/04 10:30:13;;;;;;;30.63;8.75;;;15.70;78.80;;;;;;4229802;27;20104;-70
2021/03/04 10:32:14;;;;;;;23.80;7.30;;;15.70;78.30;;;;;;4264464;27;20046;-68
2021/03/04 10:34:16;;;;;;;23.23;8.02;;;15.60;78.20;;;;;;4264050;27;20051;-69
2021/03/04 10:36:18;;;;;;;26.10;10.18;;;15.70;78.20;;;;;;4264640;27;20042;-70
2021/03/04 10:38:21;;;;;;;28.55;9.23;;;15.60;79.00;;;;;;4264285;27;20255;-70
2021/03/04 10:40:23;;;;;;;20.95;8.30;;;15.50;78.50;;;;;;4264432;27;20046;-70
2021/03/04 10:42:25;;;;;;;24.60;7.97;;;15.50;78.40;;;;;;4263916;27;20122;-70
2021/03/04 10:44:27;;;;;;;20.77;8.80;;;15.50;78.60;;;;;;4264036;27;20046;-71
2021/03/04 10:46:29;;;;;;;23.20;9.60;;;15.40;78.50;;;;;;4264576;27;20055;-71
2021/03/04 10:48:31;;;;;;;28.48;8.60;;;15.40;78.20;;;;;;4263667;27;20074;-69
2021/03/04 10:50:33;;;;;;;25.02;9.35;;;15.40;78.70;;;;;;4246169;27;20043;-73
2021/03/04 10:52:35;;;;;;;17.65;8.77;;;15.40;78.50;;;;;;4264255;27;20134;-71
2021/03/04 10:54:36;;;;;;;25.55;9.43;;;15.50;78.80;;;;;;4264966;27;20539;-71
2021/03/04 10:56:38;;;;;;;22.17;10.10;;;15.50;78.60;;;;;;4264558;27;20486;-71
2021/03/04 10:58:40;;;;;;;22.92;9.73;;;15.70;78.30;;;;;;4255643;27;20050;-71
2021/03/04 11:00:43;;;;;;;20.33;9.13;;;15.80;78.30;;;;;;4257112;27;20075;-72
2021/03/04 11:02:45;;;;;;;27.23;10.45;;;15.90;77.40;;;;;;4255876;27;20046;-72
2021/03/04 11:04:47;;;;;;;26.10;10.20;;;15.90;78.10;;;;;;4257900;27;20043;-72
2021/03/04 11:06:49;;;;;;;21.75;9.63;;;15.90;77.00;;;;;;4255493;27;20062;-73
2021/03/04 11:08:51;;;;;;;23.70;9.90;;;16.00;76.80;;;;;;4229466;28;20056;-72
2021/03/04 11:10:52;;;;;;;24.52;8.60;;;16.10;76.60;;;;;;4245715;27;20047;-71
2021/03/04 11:12:54;;;;;;;19.13;7.13;;;15.90;76.50;;;;;;4247372;27;20396;-72
2021/03/04 11:14:56;;;;;;;22.02;8.27;;;15.90;77.10;;;;;;4251296;27;20043;-71
2021/03/04 11:16:59;;;;;;;21.48;9.20;;;15.90;76.90;;;;;;4251903;27;20034;-71
2021/03/04 11:19:04;;;;;;;25.38;9.15;;;16.10;76.40;;;;;;4239102;27;20051;-71
2021/03/04 11:21:06;;;;;;;21.73;7.93;;;16.20;75.90;;;;;;4252168;27;20118;-71
2021/03/04 11:23:10;;;;;;;18.30;9.30;;;16.30;74.90;;;;;;4252109;27;20062;-70
2021/03/04 11:25:31;;;;;;;21.17;9.43;;;16.40;75.10;;;;;;4251867;27;20387;-70
2021/03/04 11:27:33;;;;;;;22.75;7.50;;;16.50;74.00;;;;;;4252052;27;20051;-70
2021/03/04 11:29:35;;;;;;;23.88;8.98;;;16.50;73.80;;;;;;4253657;27;20560;-69
2021/03/04 11:31:38;;;;;;;27.02;7.80;;;16.60;73.00;;;;;;4256403;27;20068;-69
2021/03/04 11:33:42;;;;;;;21.20;8.30;;;16.40;73.40;;;;;;4255917;27;20047;-67
2021/03/04 11:35:43;;;;;;;15.55;6.85;;;16.40;73.70;;;;;;4253764;27;20038;-70
2021/03/04 11:37:46;;;;;;;20.33;7.07;;;16.20;74.20;;;;;;4253447;27;20039;-69
2021/03/04 11:39:49;;;;;;;18.27;6.60;;;16.00;73.70;;;;;;4235429;27;20048;-69
2021/03/04 11:41:50;;;;;;;24.48;8.90;;;16.00;74.90;;;;;;4253329;27;20049;-69
2021/03/04 11:44:06;;;;;;;19.95;6.90;;;15.90;74.00;;;;;;4253868;27;20046;-68
2021/03/04 11:46:08;;;;;;;15.32;5.72;;;16.00;74.50;;;;;;4253487;27;20042;-70
2021/03/04 11:48:11;;;;;;;17.33;6.18;;;16.20;73.90;;;;;;4254092;27;20573;-70
2021/03/04 11:50:13;;;;;;;18.08;5.97;;;16.20;73.80;;;;;;4253545;27;20456;-69
2021/03/04 11:52:15;;;;;;;14.32;5.93;;;16.10;73.60;;;;;;4254276;27;20043;-70
2021/03/04 11:54:17;;;;;;;19.05;7.40;;;16.40;73.30;;;;;;4252665;27;20043;-70
2021/03/04 11:56:18;;;;;;;16.90;5.97;;;16.50;73.50;;;;;;4252932;27;20550;-69
2021/03/04 11:58:20;;;;;;;16.55;6.43;;;16.30;74.00;;;;;;4255428;27;20055;-70
2021/03/04 12:00:22;;;;;;;20.52;6.68;;;16.30;73.80;;;;;;4253602;27;20050;-70
2021/03/04 12:02:29;;;;;;;18.15;8.40;;;16.40;73.50;;;;;;4252882;27;20053;-69
2021/03/04 12:04:31;;;;;;;16.42;7.97;;;16.40;73.30;;;;;;4253357;27;20078;-71
2021/03/04 12:06:35;;;;;;;19.95;6.70;;;16.50;73.20;;;;;;4253485;27;20570;-69
2021/03/04 12:08:37;;;;;;;;;;;16.40;73.60;;;;;;4240146;27;20047;-72
2021/03/04 12:10:59;;;;;;;16.23;8.45;;;16.30;74.70;;;;;;4253567;27;20010;-71
2021/03/04 12:13:01;;;;;;;20.73;9.60;;;16.10;74.70;;;;;;4235091;27;20039;-71
2021/03/04 12:15:05;;;;;;;21.30;7.80;;;16.00;74.90;;;;;;4254934;27;20071;-70
2021/03/04 12:17:07;;;;;;;20.60;7.40;;;16.00;74.90;;;;;;4252188;27;20074;-71
2021/03/04 12:19:10;;;;;;;22.85;7.60;;;16.10;74.30;;;;;;4253340;27;20078;-70
2021/03/04 12:21:12;;;;;;;14.57;7.15;;;16.00;74.20;;;;;;4253134;27;20501;-72
2021/03/04 12:23:15;;;;;;;19.40;7.18;;;16.10;73.80;;;;;;4253150;27;20055;-70
2021/03/04 12:25:17;;;;;;;15.90;7.57;;;16.20;73.80;;;;;;4255583;27;20092;-70
2021/03/04 12:27:18;;;;;;;18.30;6.72;;;16.30;72.90;;;;;;4253668;27;20043;-74
2021/03/04 12:29:20;;;;;;;15.75;7.80;;;16.30;73.20;;;;;;4250441;27;20046;-71
2021/03/04 12:31:22;;;;;;;16.20;6.90;;;16.40;72.90;;;;;;4234534;27;20039;-71
2021/03/04 12:33:24;;;;;;;20.70;7.05;;;16.50;72.90;;;;;;4253134;27;20642;-70
2021/03/04 12:35:26;;;;;;;23.65;7.15;;;16.40;71.80;;;;;;4255034;27;20074;-70
2021/03/04 12:37:28;;;;;;;16.13;7.38;;;16.30;73.50;;;;;;4253054;27;20473;-70
2021/03/04 12:39:32;;;;;;;15.85;7.13;;;16.40;73.10;;;;;;4252990;27;20050;-70
2021/03/04 12:41:35;;;;;;;17.63;6.65;;;16.50;73.40;;;;;;4234637;27;20047;-70
2021/03/04 12:43:37;;;;;;;16.60;7.82;;;16.60;72.90;;;;;;4251078;27;20043;-71
2021/03/04 12:45:38;;;;;;;26.15;7.57;;;16.60;72.00;;;;;;4259377;27;20043;-70
2021/03/04 12:47:40;;;;;;;15.23;6.80;;;16.60;72.10;;;;;;4261897;27;20138;-70
2021/03/04 12:49:42;;;;;;;16.65;7.20;;;16.60;72.50;;;;;;4262815;27;20050;-71
2021/03/04 12:51:44;;;;;;;14.88;7.90;;;16.60;72.00;;;;;;4262353;27;20106;-70
2021/03/04 12:53:47;;;;;;;14.23;7.03;;;16.50;70.60;;;;;;4262484;27;20042;-70
2021/03/04 12:55:51;;;;;;;17.02;7.25;;;16.50;71.10;;;;;;4252648;27;20047;-71
2021/03/04 12:57:53;;;;;;;13.88;7.43;;;16.40;72.40;;;;;;4253032;27;20047;-70
2021/03/04 12:59:55;;;;;;;11.80;7.40;;;16.40;72.00;;;;;;4253033;27;20046;-71
2021/03/04 13:01:58;;;;;;;14.25;6.93;;;16.50;73.10;;;;;;4252564;27;20045;-71
2021/03/04 13:04:01;;;;;;;24.67;8.90;;;16.60;71.00;;;;;;4233169;27;20048;-70
2021/03/04 13:06:03;;;;;;;19.17;7.90;;;16.50;70.80;;;;;;4255834;27;20047;-71
2021/03/04 13:08:24;;;;;;;103.43;24.42;;;16.70;72.20;;;;;;4253702;27;20164;-71
2021/03/04 13:10:26;;;;;;;87.28;21.42;;;16.70;71.20;;;;;;4252944;27;20111;-69
2021/03/04 13:12:28;;;;;;;83.35;23.05;;;16.80;72.70;;;;;;4254324;27;20111;-72
2021/03/04 13:14:30;;;;;;;76.75;22.05;;;16.90;72.80;;;;;;4252474;27;20057;-70
2021/03/04 13:16:32;;;;;;;230.43;49.92;;;16.90;72.60;;;;;;4250242;27;20047;-71
2021/03/04 13:18:34;;;;;;;134.57;36.28;;;16.70;73.90;;;;;;4252441;27;20047;-68
2021/03/04 13:20:36;;;;;;;157.57;37.20;;;16.60;75.10;;;;;;4252669;27;20130;-71
2021/03/04 13:22:37;;;;;;;99.53;25.27;;;16.60;72.90;;;;;;4254604;27;20057;-72
2021/03/04 13:24:39;;;;;;;50.10;14.95;;;16.60;74.20;;;;;;4261563;27;20051;-72
2021/03/04 13:26:58;;;;;;;88.90;22.60;;;16.20;72.50;;;;;;4262167;27;20043;-72
2021/03/04 13:29:01;;;;;;;130.15;30.75;;;16.20;75.60;;;;;;4241865;27;20059;-71
2021/03/04 13:31:03;;;;;;;76.22;21.40;;;16.30;74.40;;;;;;4261762;27;20046;-69
2021/03/04 13:33:05;;;;;;;86.82;25.38;;;16.40;75.60;;;;;;4229250;28;20427;-70
2021/03/04 13:35:09;;;;;;;67.18;20.38;;;16.50;75.10;;;;;;4247346;27;20092;-72
2021/03/04 13:37:14;;;;;;;56.60;16.55;;;16.50;73.60;;;;;;4248322;27;20051;-71
2021/03/04 13:39:15;;;;;;;59.53;18.15;;;16.30;73.40;;;;;;4251576;27;20620;-70
2021/03/04 13:41:17;;;;;;;62.40;18.05;;;16.30;73.50;;;;;;4255927;27;20124;-69
2021/03/04 13:43:19;;;;;;;39.58;13.02;;;16.20;75.20;;;;;;4248097;27;20404;-71
2021/03/04 13:45:22;;;;;;;60.50;17.63;;;16.20;73.30;;;;;;4248030;27;20054;-72
2021/03/04 13:47:23;;;;;;;43.80;14.27;;;16.20;75.00;;;;;;4247385;27;20051;-70
2021/03/04 13:49:25;;;;;;;46.83;14.02;;;16.30;73.80;;;;;;4248317;27;20047;-70
2021/03/04 13:51:27;;;;;;;28.95;11.30;;;16.00;74.60;;;;;;4247767;27;20039;-71
2021/03/04 13:53:30;;;;;;;36.10;11.98;;;16.00;73.80;;;;;;4246509;27;20055;-71
2021/03/04 13:55:31;;;;;;;50.38;15.40;;;16.10;74.80;;;;;;4248053;27;20048;-70
2021/03/04 13:57:33;;;;;;;28.88;10.45;;;16.10;75.20;;;;;;4247071;27;20077;-71
2021/03/04 13:59:35;;;;;;;47.03;13.77;;;16.10;74.40;;;;;;4246854;27;20050;-71
2021/03/04 14:01:37;;;;;;;42.47;13.77;;;16.10;74.10;;;;;;4248260;27;20051;-71
2021/03/04 14:03:39;;;;;;;24.92;10.88;;;16.20;75.50;;;;;;4247000;27;20051;-70
2021/03/04 14:05:41;;;;;;;17.75;8.40;;;16.20;74.60;;;;;;4247360;27;20099;-70
2021/03/04 14:07:43;;;;;;;28.80;10.10;;;16.10;72.30;;;;;;4247698;27;20059;-72
2021/03/04 14:09:44;;;;;;;34.47;11.30;;;16.00;73.40;;;;;;4251617;27;20051;-71
2021/03/04 14:11:46;;;;;;;23.10;9.70;;;15.70;75.70;;;;;;4257950;27;20087;-70
2021/03/04 14:13:48;;;;;;;26.65;9.50;;;15.70;74.70;;;;;;4255153;27;20046;-71
2021/03/04 14:15:50;;;;;;;28.45;10.15;;;15.70;74.30;;;;;;4256277;27;20050;-70
2021/03/04 14:17:53;;;;;;;26.13;9.35;;;15.60;76.60;;;;;;4238458;27;20117;-69
2021/03/04 14:19:55;;;;;;;46.47;12.23;;;15.60;77.50;;;;;;4256075;27;20039;-69
2021/03/04 14:21:58;;;;;;;35.45;10.63;;;15.50;78.70;;;;;;4255749;27;20043;-71
2021/03/04 14:24:04;;;;;;;28.20;10.75;;;15.40;79.00;;;;;;4251554;27;20114;-68
2021/03/04 14:26:06;;;;;;;23.20;11.40;;;15.40;79.20;;;;;;4248592;27;20047;-69
2021/03/04 14:28:07;;;;;;;25.40;10.52;;;14.90;80.20;;;;;;4249315;27;20066;-68
2021/03/04 14:30:11;;;;;;;53.80;14.68;;;14.80;81.80;;;;;;4257316;27;20054;-69
2021/03/04 14:32:13;;;;;;;33.83;10.80;;;14.30;83.60;;;;;;4243350;27;20047;-68
2021/03/04 14:34:15;;;;;;;18.98;8.63;;;13.90;84.50;;;;;;4266702;27;20093;-68
2021/03/04 14:36:17;;;;;;;27.08;11.00;;;13.90;85.30;;;;;;4268062;27;20095;-69
2021/03/04 14:38:19;;;;;;;28.00;9.35;;;14.10;85.50;;;;;;4267206;27;20394;-69
2021/03/04 14:40:21;;;;;;;26.40;9.45;;;14.00;85.20;;;;;;4257575;27;20071;-68
2021/03/04 14:42:23;;;;;;;29.23;8.40;;;14.10;85.90;;;;;;4248138;27;20050;-69
2021/03/04 14:44:25;;;;;;;20.98;9.43;;;14.20;84.80;;;;;;4248433;27;20523;-72
2021/03/04 14:46:26;;;;;;;24.42;8.73;;;14.10;85.10;;;;;;4248646;27;20104;-73
2021/03/04 14:48:29;;;;;;;17.48;8.40;;;14.20;85.50;;;;;;4248503;27;20628;-71
2021/03/04 14:50:32;;;;;;;22.85;8.20;;;14.20;84.20;;;;;;4230196;28;20079;-68
2021/03/04 14:52:35;;;;;;;22.42;7.75;;;14.50;84.10;;;;;;4248022;27;20047;-67
2021/03/04 14:54:37;;;;;;;25.38;7.18;;;14.60;84.00;;;;;;4229037;27;20043;-67
2021/03/04 14:56:40;;;;;;;22.08;6.57;;;14.80;83.30;;;;;;4247473;27;20100;-68
2021/03/04 14:58:42;;;;;;;24.15;6.68;;;14.80;82.60;;;;;;4247619;27;20058;-73
2021/03/04 15:00:43;;;;;;;17.83;6.85;;;15.00;82.10;;;;;;4247660;27;20047;-72
2021/03/04 15:02:45;;;;;;;15.95;7.43;;;15.10;81.10;;;;;;4247534;27;20047;-73
2021/03/04 15:04:47;;;;;;;17.88;7.20;;;15.20;81.20;;;;;;4247413;27;20130;-69
2021/03/04 15:06:50;;;;;;;20.67;7.28;;;15.30;80.70;;;;;;4247519;27;20047;-69
2021/03/04 15:08:51;;;;;;;15.80;6.25;;;15.50;79.10;;;;;;4246867;27;20059;-69
2021/03/04 15:10:53;;;;;;;25.45;6.25;;;15.50;80.40;;;;;;4247204;27;20081;-70
2021/03/04 15:12:55;;;;;;;20.08;6.70;;;15.50;79.80;;;;;;4249444;27;20047;-69
2021/03/04 15:14:56;;;;;;;17.02;6.53;;;15.60;79.20;;;;;;4245842;27;20531;-69
2021/03/04 15:16:58;;;;;;;18.67;7.07;;;15.60;78.80;;;;;;4263994;27;20111;-68
2021/03/04 15:19:06;;;;;;;17.98;6.00;;;15.50;79.20;;;;;;4264067;27;20050;-68
2021/03/04 15:21:08;;;;;;;;;;;15.40;79.90;;;;;;4264514;27;20057;-68
2021/03/04 15:23:12;;;;;;;14.68;7.05;;;15.30;79.60;;;;;;4263889;27;19963;-68
2021/03/04 15:25:14;;;;;;;14.90;7.85;;;15.30;79.60;;;;;;4263831;27;20091;-68
2021/03/04 15:27:16;;;;;;;16.73;7.43;;;15.50;79.40;;;;;;4264071;27;20047;-70
2021/03/04 15:29:17;;;;;;;26.30;9.55;;;15.50;79.20;;;;;;4248172;27;20054;-68
2021/03/04 15:31:19;;;;;;;14.63;7.00;;;15.40;79.10;;;;;;4246873;27;20406;-69
2021/03/04 15:33:21;;;;;;;19.38;6.85;;;15.40;79.80;;;;;;4263100;27;20078;-70
2021/03/04 15:35:23;;;;;;;14.23;8.05;;;15.50;79.40;;;;;;4263716;27;20077;-69
2021/03/04 15:37:25;;;;;;;18.35;7.65;;;15.60;78.80;;;;;;4263699;27;20062;-69
2021/03/04 15:39:27;;;;;;;16.88;8.00;;;15.60;79.40;;;;;;4264048;27;20046;-69
2021/03/04 15:41:29;;;;;;;19.73;9.35;;;15.50;79.50;;;;;;4263641;27;20047;-67
2021/03/04 15:43:30;;;;;;;13.40;6.50;;;15.50;78.20;;;;;;4258841;27;20461;-68
2021/03/04 15:45:32;;;;;;;14.63;7.18;;;15.50;78.90;;;;;;4263441;27;20474;-69
2021/03/04 15:47:34;;;;;;;17.38;7.22;;;15.50;79.40;;;;;;4263394;27;20046;-68
2021/03/04 15:49:37;;;;;;;11.13;7.25;;;15.30;79.60;;;;;;4263021;27;20057;-70
2021/03/04 15:51:38;;;;;;;15.75;7.20;;;15.40;79.30;;;;;;4263677;27;20115;-69
2021/03/04 15:53:40;;;;;;;14.23;6.95;;;15.40;79.50;;;;;;4257056;27;20039;-71
2021/03/04 15:55:44;;;;;;;12.57;6.75;;;15.40;79.40;;;;;;4236467;27;20043;-70
2021/03/04 15:57:47;;;;;;;12.85;6.63;;;15.50;79.10;;;;;;4244596;27;20043;-70
2021/03/04 15:59:49;;;;;;;14.50;6.63;;;15.40;79.20;;;;;;4244981;27;20054;-68
2021/03/04 16:01:51;;;;;;;18.50;9.75;;;15.50;78.80;;;;;;4244700;27;20043;-69
2021/03/04 16:03:54;;;;;;;15.90;8.48;;;15.40;79.10;;;;;;4244784;27;20047;-68
2021/03/04 16:05:55;;;;;;;17.25;7.45;;;15.40;79.30;;;;;;4245866;27;20600;-69
2021/03/04 16:07:57;;;;;;;20.33;9.70;;;15.40;79.10;;;;;;4246149;27;20039;-70
2021/03/04 16:09:59;;;;;;;21.80;10.18;;;15.40;80.20;;;;;;4246185;27;20430;-68
2021/03/04 16:12:01;;;;;;;15.38;8.77;;;15.40;80.00;;;;;;4261912;27;20054;-67
2021/03/04 16:14:03;;;;;;;21.80;8.90;;;15.40;79.90;;;;;;4262155;27;20456;-68
2021/03/04 16:16:05;;;;;;;17.58;8.23;;;15.30;80.00;;;;;;4261766;27;20062;-69
2021/03/04 16:18:08;;;;;;;17.85;7.82;;;15.40;80.10;;;;;;4261873;27;20391;-68
2021/03/04 16:20:10;;;;;;;18.42;10.30;;;15.40;80.20;;;;;;4261822;27;20054;-67
2021/03/04 16:22:12;;;;;;;19.95;12.77;;;15.20;80.20;;;;;;4262404;27;20721;-68
2021/03/04 16:24:14;;;;;;;22.35;12.23;;;14.80;81.10;;;;;;4262399;27;20114;-69
2021/03/04 16:26:16;;;;;;;23.63;11.73;;;14.70;83.20;;;;;;4263099;27;20046;-69
2021/03/04 16:28:19;;;;;;;15.30;9.13;;;14.20;84.20;;;;;;4262284;27;20668;-68
2021/03/04 16:30:22;;;;;;;14.52;9.00;;;13.80;86.80;;;;;;4264314;27;20042;-73
2021/03/04 16:32:24;;;;;;;17.38;11.52;;;13.40;88.20;;;;;;4264118;27;20046;-70
2021/03/04 16:34:27;;;;;;;15.60;10.45;;;12.90;89.00;;;;;;4263978;27;20053;-70
2021/03/04 16:36:30;;;;;;;14.70;10.55;;;12.70;91.00;;;;;;4263630;27;20047;-71
2021/03/04 16:38:32;;;;;;;23.38;11.30;;;12.30;91.30;;;;;;4263850;27;20053;-71
2021/03/04 16:40:34;;;;;;;19.83;10.93;;;12.30;91.70;;;;;;4262095;27;20050;-70
2021/03/04 16:42:37;;;;;;;19.98;11.85;;;12.40;92.10;;;;;;4262359;27;20043;-70
2021/03/04 16:44:40;;;;;;;18.55;11.60;;;12.40;91.90;;;;;;4249612;27;20045;-69
2021/03/04 16:46:43;;;;;;;19.33;10.75;;;12.60;91.70;;;;;;4246384;27;20086;-69
2021/03/04 16:48:45;;;;;;;25.20;15.10;;;12.70;91.60;;;;;;4256567;27;20298;-68
2021/03/04 16:50:49;;;;;;;22.17;14.23;;;12.30;91.70;;;;;;4261286;27;20070;-69
2021/03/04 16:52:51;;;;;;;25.10;14.93;;;12.50;92.00;;;;;;4261341;27;20050;-72
2021/03/04 16:54:53;;;;;;;31.23;15.15;;;12.50;91.90;;;;;;4260650;27;20046;-69
2021/03/04 16:56:55;;;;;;;25.48;16.15;;;12.40;91.90;;;;;;4259422;27;20495;-70
2021/03/04 16:58:58;;;;;;;27.63;13.82;;;12.30;92.00;;;;;;4262181;27;20103;-68
2021/03/04 17:01:01;;;;;;;24.88;13.15;;;12.50;91.90;;;;;;4262543;27;20039;-69
2021/03/04 17:03:18;;;;;;;29.23;16.35;;;12.60;92.00;;;;;;4253900;27;20096;-68
2021/03/04 17:05:21;;;;;;;28.60;16.92;;;12.30;91.30;;;;;;4251186;27;20055;-71
2021/03/04 17:07:24;;;;;;;27.07;16.50;;;11.90;91.60;;;;;;4252290;27;20211;-69
2021/03/04 17:09:27;;;;;;;27.33;15.65;;;12.20;91.50;;;;;;4245896;27;20111;-69
2021/03/04 17:11:29;;;;;;;21.25;14.98;;;11.90;91.30;;;;;;4259204;27;20043;-70
2021/03/04 17:13:31;;;;;;;21.83;14.55;;;11.90;92.00;;;;;;4256442;27;20039;-70
2021/03/04 17:15:34;;;;;;;28.52;13.45;;;11.50;91.70;;;;;;4251826;27;20182;-69
2021/03/04 17:17:39;;;;;;;23.23;14.85;;;11.30;92.60;;;;;;4248323;27;20054;-69
2021/03/04 17:19:41;;;;;;;22.95;14.77;;;11.30;92.60;;;;;;4247889;27;20148;-70
2021/03/04 17:21:43;;;;;;;22.83;14.68;;;11.10;93.20;;;;;;4250116;27;20046;-70
2021/03/04 17:23:45;;;;;;;23.00;13.57;;;11.40;93.40;;;;;;4261621;27;20093;-69
2021/03/04 17:25:48;;;;;;;19.42;13.65;;;11.80;92.50;;;;;;4252780;27;20057;-69
2021/03/04 17:27:50;;;;;;;20.67;13.02;;;11.20;92.60;;;;;;4257969;27;20058;-72
2021/03/04 17:30:05;;;;;;;21.42;11.88;;;11.10;93.50;;;;;;4255013;27;20083;-70
2021/03/04 17:32:08;;;;;;;21.70;14.32;;;11.30;94.70;;;;;;4229848;27;20052;-71
2021/03/04 17:34:13;;;;;;;18.52;12.93;;;11.30;92.80;;;;;;4253404;27;20139;-70
2021/03/04 17:36:19;;;;;;;23.25;13.45;;;11.40;93.10;;;;;;4251506;27;20074;-70
2021/03/04 17:38:21;;;;;;;23.17;14.15;;;11.40;93.50;;;;;;4254096;27;20060;-70
2021/03/04 17:40:25;;;;;;;19.42;12.57;;;11.10;93.20;;;;;;4257353;27;20138;-70
2021/03/04 17:42:27;;;;;;;23.58;15.15;;;11.30;94.00;;;;;;4256143;27;20043;-70
2021/03/04 17:44:29;;;;;;;25.20;13.88;;;11.20;92.90;;;;;;4248241;27;20043;-69
2021/03/04 17:46:32;;;;;;;31.10;11.48;;;11.00;93.50;;;;;;4262166;27;20039;-72
2021/03/04 17:48:38;;;;;;;24.98;12.13;;;11.50;94.80;;;;;;4247545;27;20052;-72
2021/03/04 17:50:46;;;;;;;17.27;13.10;;;11.40;93.90;;;;;;4265594;27;20125;-69
2021/03/04 17:52:59;;;;;;;19.05;12.27;;;11.00;92.40;;;;;;4236168;27;20495;-72
2021/03/04 17:55:04;;;;;;;18.77;11.95;;;11.00;92.80;;;;;;4248867;27;20127;-72
2021/03/04 17:57:07;;;;;;;18.37;12.53;;;11.00;92.20;;;;;;4249278;27;20058;-71
2021/03/04 17:59:09;;;;;;;22.08;11.65;;;11.20;92.50;;;;;;4248546;27;20483;-71
2021/03/04 18:01:11;;;;;;;19.30;11.70;;;11.50;92.40;;;;;;4249353;27;20051;-72
2021/03/04 18:03:12;;;;;;;17.13;11.48;;;11.40;92.00;;;;;;4256580;27;20046;-72
2021/03/04 18:05:16;;;;;;;16.25;11.25;;;11.60;92.00;;;;;;4265896;27;20088;-72
2021/03/04 18:07:19;;;;;;;21.10;13.32;;;11.50;92.00;;;;;;4266100;27;20039;-71
2021/03/04 18:09:21;;;;;;;23.13;10.13;;;11.10;91.70;;;;;;4269470;27;20751;-76
2021/03/04 18:11:26;;;;;;;17.20;12.10;;;11.10;93.50;;;;;;4267192;27;20116;-72
2021/03/04 18:13:30;;;;;;;22.15;13.18;;;11.00;92.10;;;;;;4267460;27;20039;-71
2021/03/04 18:15:32;;;;;;;23.98;13.07;;;10.80;92.30;;;;;;4268397;27;20113;-71
2021/03/04 18:17:34;;;;;;;22.05;12.82;;;11.00;92.20;;;;;;4250274;27;20035;-72
2021/03/04 18:19:36;;;;;;;17.70;10.70;;;10.80;92.70;;;;;;4268627;27;20123;-72
2021/03/04 18:21:38;;;;;;;19.40;13.10;;;11.10;93.40;;;;;;4268401;27;20046;-72
2021/03/04 18:23:40;;;;;;;18.25;12.65;;;10.90;92.10;;;;;;4268157;27;20042;-72
2021/03/04 18:25:42;;;;;;;23.48;13.73;;;11.10;92.30;;;;;;4266881;27;20440;-70
2021/03/04 18:27:44;;;;;;;22.50;15.55;;;11.20;92.50;;;;;;4263761;27;20042;-74
2021/03/04 18:29:46;;;;;;;18.92;12.13;;;11.20;91.60;;;;;;4231090;28;20047;-72
2021/03/04 18:31:48;;;;;;;21.95;14.57;;;11.50;92.50;;;;;;4255136;27;20098;-75
2021/03/04 18:33:50;;;;;;;22.15;15.30;;;11.10;91.90;;;;;;4265050;27;20047;-71
2021/03/04 18:35:55;;;;;;;23.08;16.25;;;11.00;91.90;;;;;;4246769;27;20535;-70
2021/03/04 18:37:58;;;;;;;24.00;15.77;;;10.90;92.10;;;;;;4265439;27;20406;-71
2021/03/04 18:40:03;;;;;;;21.15;14.65;;;10.80;92.50;;;;;;4265466;27;20053;-71
2021/03/04 18:42:05;;;;;;;24.85;16.80;;;11.30;92.10;;;;;;4264970;27;20095;-71
2021/03/04 18:44:07;;;;;;;23.70;16.42;;;11.10;92.10;;;;;;4247606;27;20052;-72
2021/03/04 18:46:09;;;;;;;25.73;17.80;;;11.30;91.60;;;;;;4266212;27;20043;-72
2021/03/04 18:48:11;;;;;;;28.08;17.00;;;10.90;91.90;;;;;;4265772;27;20047;-72
2021/03/04 18:50:13;;;;;;;29.88;18.15;;;11.00;91.90;;;;;;4246936;27;20118;-72
2021/03/04 18:52:15;;;;;;;33.72;19.77;;;10.90;92.20;;;;;;4265687;27;20039;-72
2021/03/04 18:54:22;;;;;;;30.47;19.87;;;10.90;93.20;;;;;;4265600;27;20058;-71
2021/03/04 18:56:24;;;;;;;21.60;12.70;;;11.40;91.40;;;;;;4265437;27;20051;-69
2021/03/04 18:58:26;;;;;;;36.97;21.00;;;11.50;92.60;;;;;;4264145;27;20053;-71
2021/03/04 19:00:28;;;;;;;29.63;17.98;;;11.20;92.00;;;;;;4265724;27;20046;-71
2021/03/04 19:02:30;;;;;;;33.20;20.40;;;11.40;90.90;;;;;;4266216;27;20043;-71
2021/03/04 19:04:33;;;;;;;28.58;15.00;;;11.30;91.00;;;;;;4265557;27;20693;-72
2021/03/04 19:06:36;;;;;;;42.95;24.17;;;11.60;92.10;;;;;;4266466;27;20043;-72
2021/03/04 19:08:37;;;;;;;48.05;26.33;;;11.30;90.60;;;;;;4266706;27;20046;-71
2021/03/04 19:10:39;;;;;;;40.08;23.00;;;11.20;90.90;;;;;;4267807;27;20050;-72
2021/03/04 19:12:42;;;;;;;52.42;26.30;;;10.70;91.60;;;;;;4264587;27;20046;-71
2021/03/04 19:14:44;;;;;;;48.60;26.75;;;10.40;92.30;;;;;;4264486;27;20578;-70
2021/03/04 19:16:46;;;;;;;52.67;26.70;;;10.50;92.30;;;;;;4257573;27;20039;-71